sensor_id;sensor_type;location;lat;lon;timestamp;P1;durP1;ratioP1;P2;durP2;ratioP2
4583;SDS011;2304;47.606;12.186;2023-03-12T00:01:47;9.60;;;4.50;;
4583;SDS011;2304;47.606;12.186;2023-03-12T00:06:48;7.60;;;4.70;;
4583;SDS011;2304;47.606;12.186;2023-03-12T00:11:51;5.67;;;4.30;;
4583;SDS011;2304;47.606;12.186;2023-03-12T00:16:53;6.57;;;4.87;;
4583;SDS011;2304;47.606;12.186;2023-03-12T00:21:55;8.80;;;4.60;;
4583;SDS011;2304;47.606;12.186;2023-03-12T00:26:58;10.33;;;5.20;;
4583;SDS011;2304;47.606;12.186;2023-03-12T00:32:00;17.20;;;7.40;;
4583;SDS011;2304;47.606;12.186;2023-03-12T00:37:02;7.00;;;5.00;;
4583;SDS011;2304;47.606;12.186;2023-03-12T00:42:05;8.70;;;4.83;;
4583;SDS011;2304;47.606;12.186;2023-03-12T00:47:07;6.80;;;4.47;;
4583;SDS011;2304;47.606;12.186;2023-03-12T00:52:09;7.13;;;4.50;;
4583;SDS011;2304;47.606;12.186;2023-03-12T00:57:12;7.03;;;4.37;;
4583;SDS011;2304;47.606;12.186;2023-03-12T01:02:14;12.10;;;5.00;;
4583;SDS011;2304;47.606;12.186;2023-03-12T01:07:16;5.57;;;4.03;;
4583;SDS011;2304;47.606;12.186;2023-03-12T01:12:19;9.13;;;4.80;;
4583;SDS011;2304;47.606;12.186;2023-03-12T01:17:21;5.47;;;3.97;;
4583;SDS011;2304;47.606;12.186;2023-03-12T01:22:22;9.10;;;4.10;;
4583;SDS011;2304;47.606;12.186;2023-03-12T01:27:26;11.00;;;4.33;;
4583;SDS011;2304;47.606;12.186;2023-03-12T01:32:28;8.07;;;5.20;;
4583;SDS011;2304;47.606;12.186;2023-03-12T01:37:30;9.50;;;6.93;;
4583;SDS011;2304;47.606;12.186;2023-03-12T01:42:34;7.00;;;4.60;;
4583;SDS011;2304;47.606;12.186;2023-03-12T01:47:36;6.00;;;4.90;;
4583;SDS011;2304;47.606;12.186;2023-03-12T01:52:37;8.23;;;5.47;;
4583;SDS011;2304;47.606;12.186;2023-03-12T01:57:42;7.50;;;4.57;;
4583;SDS011;2304;47.606;12.186;2023-03-12T02:02:47;6.50;;;4.70;;
4583;SDS011;2304;47.606;12.186;2023-03-12T02:07:51;8.60;;;4.73;;
4583;SDS011;2304;47.606;12.186;2023-03-12T02:12:54;7.50;;;4.80;;
4583;SDS011;2304;47.606;12.186;2023-03-12T02:17:56;5.10;;;3.83;;
4583;SDS011;2304;47.606;12.186;2023-03-12T02:22:59;5.93;;;4.10;;
4583;SDS011;2304;47.606;12.186;2023-03-12T02:28:08;7.23;;;3.83;;
4583;SDS011;2304;47.606;12.186;2023-03-12T02:33:12;6.73;;;4.20;;
4583;SDS011;2304;47.606;12.186;2023-03-12T02:43:45;6.50;;;4.93;;
4583;SDS011;2304;47.606;12.186;2023-03-12T02:48:49;9.10;;;5.10;;
4583;SDS011;2304;47.606;12.186;2023-03-12T02:53:51;7.10;;;4.60;;
4583;SDS011;2304;47.606;12.186;2023-03-12T02:58:55;7.10;;;3.97;;
4583;SDS011;2304;47.606;12.186;2023-03-12T03:03:57;5.27;;;3.40;;
4583;SDS011;2304;47.606;12.186;2023-03-12T03:08:59;5.53;;;3.70;;
4583;SDS011;2304;47.606;12.186;2023-03-12T03:14:02;8.67;;;5.90;;
4583;SDS011;2304;47.606;12.186;2023-03-12T03:19:06;8.43;;;5.07;;
4583;SDS011;2304;47.606;12.186;2023-03-12T03:24:07;8.97;;;4.80;;
4583;SDS011;2304;47.606;12.186;2023-03-12T03:29:11;7.17;;;4.57;;
4583;SDS011;2304;47.606;12.186;2023-03-12T03:34:12;6.60;;;5.30;;
4583;SDS011;2304;47.606;12.186;2023-03-12T03:39:14;7.37;;;5.33;;
4583;SDS011;2304;47.606;12.186;2023-03-12T03:44:17;7.37;;;4.50;;
4583;SDS011;2304;47.606;12.186;2023-03-12T03:49:21;7.83;;;4.60;;
4583;SDS011;2304;47.606;12.186;2023-03-12T03:54:23;5.03;;;3.63;;
4583;SDS011;2304;47.606;12.186;2023-03-12T03:59:26;8.97;;;4.33;;
4583;SDS011;2304;47.606;12.186;2023-03-12T04:04:28;10.73;;;4.57;;
4583;SDS011;2304;47.606;12.186;2023-03-12T04:09:32;10.00;;;4.57;;
4583;SDS011;2304;47.606;12.186;2023-03-12T04:14:38;5.90;;;4.20;;
4583;SDS011;2304;47.606;12.186;2023-03-12T04:19:41;7.10;;;4.17;;
4583;SDS011;2304;47.606;12.186;2023-03-12T04:24:43;6.63;;;4.13;;
4583;SDS011;2304;47.606;12.186;2023-03-12T04:29:46;8.30;;;3.90;;
4583;SDS011;2304;47.606;12.186;2023-03-12T04:34:48;7.40;;;4.77;;
4583;SDS011;2304;47.606;12.186;2023-03-12T04:39:49;7.43;;;4.93;;
4583;SDS011;2304;47.606;12.186;2023-03-12T04:44:53;5.60;;;4.43;;
4583;SDS011;2304;47.606;12.186;2023-03-12T04:49:54;6.60;;;4.80;;
4583;SDS011;2304;47.606;12.186;2023-03-12T04:54:56;7.80;;;4.67;;
4583;SDS011;2304;47.606;12.186;2023-03-12T05:00:00;7.80;;;4.93;;
4583;SDS011;2304;47.606;12.186;2023-03-12T05:05:04;10.90;;;5.40;;
4583;SDS011;2304;47.606;12.186;2023-03-12T05:10:07;10.00;;;5.10;;
4583;SDS011;2304;47.606;12.186;2023-03-12T05:15:11;8.93;;;4.90;;
4583;SDS011;2304;47.606;12.186;2023-03-12T05:20:12;9.50;;;5.70;;
4583;SDS011;2304;47.606;12.186;2023-03-12T05:25:14;7.17;;;4.93;;
4583;SDS011;2304;47.606;12.186;2023-03-12T05:30:17;6.80;;;4.83;;
4583;SDS011;2304;47.606;12.186;2023-03-12T05:35:19;7.83;;;5.83;;
4583;SDS011;2304;47.606;12.186;2023-03-12T05:40:21;7.40;;;6.00;;
4583;SDS011;2304;47.606;12.186;2023-03-12T05:45:24;11.27;;;5.57;;
4583;SDS011;2304;47.606;12.186;2023-03-12T05:50:26;9.03;;;5.80;;
4583;SDS011;2304;47.606;12.186;2023-03-12T05:55:28;36.37;;;19.70;;
4583;SDS011;2304;47.606;12.186;2023-03-12T06:00:31;28.20;;;16.13;;
4583;SDS011;2304;47.606;12.186;2023-03-12T06:05:36;14.17;;;9.53;;
4583;SDS011;2304;47.606;12.186;2023-03-12T06:10:39;9.37;;;6.63;;
4583;SDS011;2304;47.606;12.186;2023-03-12T06:15:42;9.77;;;6.40;;
4583;SDS011;2304;47.606;12.186;2023-03-12T06:20:44;10.40;;;6.30;;
4583;SDS011;2304;47.606;12.186;2023-03-12T06:25:46;14.13;;;7.80;;
4583;SDS011;2304;47.606;12.186;2023-03-12T06:30:49;12.60;;;7.87;;
4583;SDS011;2304;47.606;12.186;2023-03-12T06:35:53;11.10;;;7.97;;
4583;SDS011;2304;47.606;12.186;2023-03-12T06:40:55;9.50;;;7.50;;
4583;SDS011;2304;47.606;12.186;2023-03-12T06:46:00;9.80;;;7.90;;
4583;SDS011;2304;47.606;12.186;2023-03-12T06:51:03;8.47;;;6.40;;
4583;SDS011;2304;47.606;12.186;2023-03-12T06:56:06;12.40;;;6.67;;
4583;SDS011;2304;47.606;12.186;2023-03-12T07:01:09;10.47;;;6.87;;
4583;SDS011;2304;47.606;12.186;2023-03-12T07:06:12;17.70;;;6.80;;
4583;SDS011;2304;47.606;12.186;2023-03-12T07:11:14;19.13;;;7.60;;
4583;SDS011;2304;47.606;12.186;2023-03-12T07:16:18;15.50;;;8.67;;
4583;SDS011;2304;47.606;12.186;2023-03-12T07:21:19;10.40;;;7.40;;
4583;SDS011;2304;47.606;12.186;2023-03-12T07:26:22;16.70;;;7.73;;
4583;SDS011;2304;47.606;12.186;2023-03-12T07:31:25;13.77;;;7.20;;
4583;SDS011;2304;47.606;12.186;2023-03-12T07:36:27;15.57;;;7.73;;
4583;SDS011;2304;47.606;12.186;2023-03-12T07:41:29;19.20;;;8.07;;
4583;SDS011;2304;47.606;12.186;2023-03-12T07:46:32;11.73;;;8.03;;
4583;SDS011;2304;47.606;12.186;2023-03-12T07:51:34;17.50;;;8.63;;
4583;SDS011;2304;47.606;12.186;2023-03-12T07:56:36;16.50;;;10.20;;
4583;SDS011;2304;47.606;12.186;2023-03-12T08:01:39;20.27;;;11.30;;
4583;SDS011;2304;47.606;12.186;2023-03-12T08:06:41;14.40;;;9.40;;
4583;SDS011;2304;47.606;12.186;2023-03-12T08:11:43;13.60;;;9.10;;
4583;SDS011;2304;47.606;12.186;2023-03-12T08:16:46;13.60;;;9.40;;
4583;SDS011;2304;47.606;12.186;2023-03-12T08:21:48;16.10;;;9.50;;
4583;SDS011;2304;47.606;12.186;2023-03-12T08:26:50;17.63;;;9.43;;
4583;SDS011;2304;47.606;12.186;2023-03-12T08:31:53;15.23;;;9.63;;
4583;SDS011;2304;47.606;12.186;2023-03-12T08:36:55;15.40;;;10.00;;
4583;SDS011;2304;47.606;12.186;2023-03-12T08:41:57;15.93;;;10.20;;
4583;SDS011;2304;47.606;12.186;2023-03-12T08:47:00;14.70;;;10.87;;
4583;SDS011;2304;47.606;12.186;2023-03-12T08:52:02;12.80;;;9.37;;
4583;SDS011;2304;47.606;12.186;2023-03-12T08:57:04;15.80;;;11.13;;
4583;SDS011;2304;47.606;12.186;2023-03-12T09:02:08;14.40;;;11.10;;
4583;SDS011;2304;47.606;12.186;2023-03-12T09:07:11;13.40;;;10.43;;
4583;SDS011;2304;47.606;12.186;2023-03-12T09:12:13;15.80;;;10.60;;
4583;SDS011;2304;47.606;12.186;2023-03-12T09:17:16;16.13;;;10.47;;
4583;SDS011;2304;47.606;12.186;2023-03-12T09:22:18;14.20;;;11.17;;
4583;SDS011;2304;47.606;12.186;2023-03-12T09:27:20;17.10;;;11.37;;
4583;SDS011;2304;47.606;12.186;2023-03-12T09:32:23;15.90;;;11.13;;
4583;SDS011;2304;47.606;12.186;2023-03-12T09:37:26;16.73;;;10.87;;
4583;SDS011;2304;47.606;12.186;2023-03-12T09:42:29;16.50;;;10.93;;
4583;SDS011;2304;47.606;12.186;2023-03-12T09:47:41;11.60;;;9.60;;
4583;SDS011;2304;47.606;12.186;2023-03-12T09:52:48;13.70;;;10.50;;
4583;SDS011;2304;47.606;12.186;2023-03-12T09:57:53;21.77;;;10.83;;
4583;SDS011;2304;47.606;12.186;2023-03-12T10:03:09;17.70;;;12.03;;
4583;SDS011;2304;47.606;12.186;2023-03-12T10:08:24;17.03;;;11.80;;
4583;SDS011;2304;47.606;12.186;2023-03-12T10:13:37;15.43;;;10.90;;
4583;SDS011;2304;47.606;12.186;2023-03-12T10:19:09;15.03;;;9.83;;
4583;SDS011;2304;47.606;12.186;2023-03-12T10:24:33;19.40;;;12.40;;
4583;SDS011;2304;47.606;12.186;2023-03-12T10:29:45;15.07;;;10.57;;
4583;SDS011;2304;47.606;12.186;2023-03-12T10:34:50;23.63;;;14.30;;
4583;SDS011;2304;47.606;12.186;2023-03-12T10:39:56;12.83;;;9.30;;
4583;SDS011;2304;47.606;12.186;2023-03-12T10:45:00;13.47;;;9.23;;
4583;SDS011;2304;47.606;12.186;2023-03-12T10:50:20;16.40;;;9.73;;
4583;SDS011;2304;47.606;12.186;2023-03-12T10:55:24;15.67;;;11.10;;
4583;SDS011;2304;47.606;12.186;2023-03-12T11:00:29;13.37;;;8.93;;
4583;SDS011;2304;47.606;12.186;2023-03-12T11:05:34;14.10;;;9.67;;
4583;SDS011;2304;47.606;12.186;2023-03-12T11:10:38;10.63;;;7.97;;
4583;SDS011;2304;47.606;12.186;2023-03-12T11:15:43;23.30;;;9.30;;
4583;SDS011;2304;47.606;12.186;2023-03-12T11:20:46;12.60;;;9.73;;
4583;SDS011;2304;47.606;12.186;2023-03-12T11:25:56;13.83;;;8.27;;
4583;SDS011;2304;47.606;12.186;2023-03-12T11:31:00;14.43;;;10.37;;
4583;SDS011;2304;47.606;12.186;2023-03-12T11:36:15;14.37;;;9.70;;
4583;SDS011;2304;47.606;12.186;2023-03-12T11:41:35;14.60;;;10.70;;
4583;SDS011;2304;47.606;12.186;2023-03-12T11:46:51;15.53;;;10.63;;
4583;SDS011;2304;47.606;12.186;2023-03-12T11:52:07;15.93;;;9.97;;
4583;SDS011;2304;47.606;12.186;2023-03-12T11:57:16;16.30;;;10.87;;
4583;SDS011;2304;47.606;12.186;2023-03-12T12:02:29;13.70;;;10.33;;
4583;SDS011;2304;47.606;12.186;2023-03-12T12:07:49;16.70;;;11.30;;
4583;SDS011;2304;47.606;12.186;2023-03-12T12:12:58;14.73;;;11.17;;
4583;SDS011;2304;47.606;12.186;2023-03-12T12:18:13;22.00;;;12.13;;
4583;SDS011;2304;47.606;12.186;2023-03-12T12:23:33;14.23;;;9.57;;
4583;SDS011;2304;47.606;12.186;2023-03-12T12:28:53;13.83;;;9.07;;
4583;SDS011;2304;47.606;12.186;2023-03-12T12:34:23;10.97;;;8.80;;
4583;SDS011;2304;47.606;12.186;2023-03-12T12:39:41;13.43;;;8.80;;
4583;SDS011;2304;47.606;12.186;2023-03-12T12:44:46;10.90;;;8.00;;
4583;SDS011;2304;47.606;12.186;2023-03-12T12:49:51;15.07;;;8.93;;
4583;SDS011;2304;47.606;12.186;2023-03-12T12:54:59;11.60;;;8.27;;
4583;SDS011;2304;47.606;12.186;2023-03-12T13:00:10;9.93;;;6.67;;
4583;SDS011;2304;47.606;12.186;2023-03-12T13:05:24;9.87;;;8.13;;
4583;SDS011;2304;47.606;12.186;2023-03-12T13:10:42;11.70;;;7.90;;
4583;SDS011;2304;47.606;12.186;2023-03-12T13:15:43;11.00;;;7.97;;
4583;SDS011;2304;47.606;12.186;2023-03-12T13:20:57;10.63;;;8.00;;
4583;SDS011;2304;47.606;12.186;2023-03-12T13:26:13;11.50;;;8.00;;
4583;SDS011;2304;47.606;12.186;2023-03-12T13:31:34;10.60;;;7.97;;
4583;SDS011;2304;47.606;12.186;2023-03-12T13:36:37;15.23;;;9.37;;
4583;SDS011;2304;47.606;12.186;2023-03-12T13:41:41;22.00;;;10.00;;
4583;SDS011;2304;47.606;12.186;2023-03-12T13:46:57;11.77;;;8.57;;
4583;SDS011;2304;47.606;12.186;2023-03-12T13:52:02;14.43;;;9.40;;
4583;SDS011;2304;47.606;12.186;2023-03-12T13:57:28;18.67;;;10.00;;
4583;SDS011;2304;47.606;12.186;2023-03-12T14:02:35;15.67;;;9.87;;
4583;SDS011;2304;47.606;12.186;2023-03-12T14:07:54;14.33;;;10.37;;
4583;SDS011;2304;47.606;12.186;2023-03-12T14:13:14;12.20;;;9.57;;
4583;SDS011;2304;47.606;12.186;2023-03-12T14:18:25;14.57;;;9.83;;
4583;SDS011;2304;47.606;12.186;2023-03-12T14:23:29;18.97;;;11.57;;
4583;SDS011;2304;47.606;12.186;2023-03-12T14:28:39;17.20;;;10.27;;
4583;SDS011;2304;47.606;12.186;2023-03-12T14:33:45;16.37;;;11.30;;
4583;SDS011;2304;47.606;12.186;2023-03-12T14:38:57;13.77;;;9.47;;
4583;SDS011;2304;47.606;12.186;2023-03-12T14:44:19;15.97;;;11.07;;
4583;SDS011;2304;47.606;12.186;2023-03-12T14:49:23;13.10;;;10.00;;
4583;SDS011;2304;47.606;12.186;2023-03-12T14:54:25;14.33;;;10.10;;
4583;SDS011;2304;47.606;12.186;2023-03-12T14:59:30;13.60;;;9.57;;
4583;SDS011;2304;47.606;12.186;2023-03-12T15:04:36;13.30;;;10.23;;
4583;SDS011;2304;47.606;12.186;2023-03-12T15:09:40;14.60;;;11.20;;
4583;SDS011;2304;47.606;12.186;2023-03-12T15:14:45;21.43;;;10.10;;
4583;SDS011;2304;47.606;12.186;2023-03-12T15:19:49;15.80;;;10.60;;
4583;SDS011;2304;47.606;12.186;2023-03-12T15:24:53;14.53;;;10.40;;
4583;SDS011;2304;47.606;12.186;2023-03-12T15:29:57;12.90;;;10.60;;
4583;SDS011;2304;47.606;12.186;2023-03-12T15:35:10;12.00;;;9.10;;
4583;SDS011;2304;47.606;12.186;2023-03-12T15:40:15;13.00;;;9.40;;
4583;SDS011;2304;47.606;12.186;2023-03-12T15:45:24;14.33;;;10.50;;
4583;SDS011;2304;47.606;12.186;2023-03-12T15:50:30;14.73;;;11.80;;
4583;SDS011;2304;47.606;12.186;2023-03-12T15:55:37;15.87;;;11.27;;
4583;SDS011;2304;47.606;12.186;2023-03-12T16:00:42;13.17;;;10.03;;
4583;SDS011;2304;47.606;12.186;2023-03-12T16:05:45;13.53;;;10.47;;
4583;SDS011;2304;47.606;12.186;2023-03-12T16:10:48;11.13;;;8.33;;
4583;SDS011;2304;47.606;12.186;2023-03-12T16:15:52;12.40;;;9.50;;
4583;SDS011;2304;47.606;12.186;2023-03-12T16:20:54;12.83;;;8.40;;
4583;SDS011;2304;47.606;12.186;2023-03-12T16:25:55;12.47;;;10.10;;
4583;SDS011;2304;47.606;12.186;2023-03-12T16:31:00;11.90;;;9.27;;
4583;SDS011;2304;47.606;12.186;2023-03-12T16:36:02;11.10;;;7.60;;
4583;SDS011;2304;47.606;12.186;2023-03-12T16:41:04;14.20;;;10.87;;
4583;SDS011;2304;47.606;12.186;2023-03-12T16:46:07;16.30;;;10.97;;
4583;SDS011;2304;47.606;12.186;2023-03-12T16:51:11;14.10;;;11.30;;
4583;SDS011;2304;47.606;12.186;2023-03-12T16:56:15;13.90;;;10.00;;
4583;SDS011;2304;47.606;12.186;2023-03-12T17:01:20;17.27;;;12.47;;
4583;SDS011;2304;47.606;12.186;2023-03-12T17:06:24;13.97;;;10.57;;
4583;SDS011;2304;47.606;12.186;2023-03-12T17:11:27;15.73;;;10.83;;
4583;SDS011;2304;47.606;12.186;2023-03-12T17:16:33;13.30;;;9.80;;
4583;SDS011;2304;47.606;12.186;2023-03-12T17:21:34;15.20;;;10.87;;
4583;SDS011;2304;47.606;12.186;2023-03-12T17:26:37;18.40;;;13.90;;
4583;SDS011;2304;47.606;12.186;2023-03-12T17:31:40;16.60;;;13.67;;
4583;SDS011;2304;47.606;12.186;2023-03-12T17:36:42;12.00;;;9.13;;
4583;SDS011;2304;47.606;12.186;2023-03-12T17:41:43;13.53;;;9.23;;
4583;SDS011;2304;47.606;12.186;2023-03-12T17:46:47;24.53;;;17.40;;
4583;SDS011;2304;47.606;12.186;2023-03-12T17:51:48;19.77;;;13.90;;
4583;SDS011;2304;47.606;12.186;2023-03-12T17:56:50;18.07;;;13.73;;
4583;SDS011;2304;47.606;12.186;2023-03-12T18:01:53;16.27;;;12.13;;
4583;SDS011;2304;47.606;12.186;2023-03-12T18:06:55;15.27;;;11.20;;
4583;SDS011;2304;47.606;12.186;2023-03-12T18:11:58;56.37;;;31.30;;
4583;SDS011;2304;47.606;12.186;2023-03-12T18:17:01;57.47;;;29.77;;
4583;SDS011;2304;47.606;12.186;2023-03-12T18:22:03;23.57;;;15.37;;
4583;SDS011;2304;47.606;12.186;2023-03-12T18:27:06;19.37;;;14.80;;
4583;SDS011;2304;47.606;12.186;2023-03-12T18:32:09;26.70;;;16.07;;
4583;SDS011;2304;47.606;12.186;2023-03-12T18:37:11;25.53;;;16.87;;
4583;SDS011;2304;47.606;12.186;2023-03-12T18:42:13;33.33;;;20.63;;
4583;SDS011;2304;47.606;12.186;2023-03-12T18:47:16;29.60;;;21.83;;
4583;SDS011;2304;47.606;12.186;2023-03-12T18:52:18;29.23;;;20.80;;
4583;SDS011;2304;47.606;12.186;2023-03-12T18:57:20;24.43;;;17.83;;
4583;SDS011;2304;47.606;12.186;2023-03-12T19:02:23;24.40;;;15.80;;
4583;SDS011;2304;47.606;12.186;2023-03-12T19:07:24;23.20;;;16.73;;
4583;SDS011;2304;47.606;12.186;2023-03-12T19:12:26;20.47;;;15.70;;
4583;SDS011;2304;47.606;12.186;2023-03-12T19:17:29;26.33;;;18.23;;
4583;SDS011;2304;47.606;12.186;2023-03-12T19:22:31;23.87;;;15.87;;
4583;SDS011;2304;47.606;12.186;2023-03-12T19:27:33;25.10;;;17.73;;
4583;SDS011;2304;47.606;12.186;2023-03-12T19:32:36;26.40;;;17.77;;
4583;SDS011;2304;47.606;12.186;2023-03-12T19:37:38;26.10;;;16.77;;
4583;SDS011;2304;47.606;12.186;2023-03-12T19:42:40;29.43;;;17.20;;
4583;SDS011;2304;47.606;12.186;2023-03-12T19:47:43;27.67;;;18.80;;
4583;SDS011;2304;47.606;12.186;2023-03-12T19:52:45;27.07;;;17.50;;
4583;SDS011;2304;47.606;12.186;2023-03-12T19:57:47;28.20;;;17.43;;
4583;SDS011;2304;47.606;12.186;2023-03-12T20:02:50;30.33;;;21.07;;
4583;SDS011;2304;47.606;12.186;2023-03-12T20:07:52;22.60;;;17.73;;
4583;SDS011;2304;47.606;12.186;2023-03-12T20:12:54;23.47;;;16.33;;
4583;SDS011;2304;47.606;12.186;2023-03-12T20:17:57;25.87;;;18.40;;
4583;SDS011;2304;47.606;12.186;2023-03-12T20:22:59;24.10;;;17.20;;
4583;SDS011;2304;47.606;12.186;2023-03-12T20:28:01;25.70;;;17.73;;
4583;SDS011;2304;47.606;12.186;2023-03-12T20:33:04;25.67;;;17.30;;
4583;SDS011;2304;47.606;12.186;2023-03-12T20:38:07;25.30;;;17.23;;
4583;SDS011;2304;47.606;12.186;2023-03-12T20:43:09;28.90;;;17.90;;
4583;SDS011;2304;47.606;12.186;2023-03-12T20:48:12;22.83;;;17.50;;
4583;SDS011;2304;47.606;12.186;2023-03-12T20:53:14;26.20;;;19.00;;
4583;SDS011;2304;47.606;12.186;2023-03-12T20:58:16;24.00;;;15.70;;
4583;SDS011;2304;47.606;12.186;2023-03-12T21:03:19;27.07;;;18.10;;
4583;SDS011;2304;47.606;12.186;2023-03-12T21:08:21;25.10;;;18.80;;
4583;SDS011;2304;47.606;12.186;2023-03-12T21:13:24;26.63;;;19.97;;
4583;SDS011;2304;47.606;12.186;2023-03-12T21:18:27;26.53;;;19.03;;
4583;SDS011;2304;47.606;12.186;2023-03-12T21:23:29;29.80;;;21.10;;
4583;SDS011;2304;47.606;12.186;2023-03-12T21:28:31;31.37;;;20.80;;
4583;SDS011;2304;47.606;12.186;2023-03-12T21:33:35;27.93;;;18.97;;
4583;SDS011;2304;47.606;12.186;2023-03-12T21:38:37;31.73;;;19.80;;
4583;SDS011;2304;47.606;12.186;2023-03-12T21:43:40;29.63;;;19.97;;
4583;SDS011;2304;47.606;12.186;2023-03-12T21:48:44;31.53;;;19.60;;
4583;SDS011;2304;47.606;12.186;2023-03-12T21:53:50;29.47;;;19.80;;
4583;SDS011;2304;47.606;12.186;2023-03-12T21:58:53;31.93;;;21.40;;
4583;SDS011;2304;47.606;12.186;2023-03-12T22:03:57;27.60;;;18.43;;
4583;SDS011;2304;47.606;12.186;2023-03-12T22:09:00;26.80;;;18.83;;
4583;SDS011;2304;47.606;12.186;2023-03-12T22:14:01;23.93;;;15.60;;
4583;SDS011;2304;47.606;12.186;2023-03-12T22:19:04;28.47;;;19.50;;
4583;SDS011;2304;47.606;12.186;2023-03-12T22:24:07;28.27;;;18.30;;
4583;SDS011;2304;47.606;12.186;2023-03-12T22:29:10;24.93;;;17.30;;
4583;SDS011;2304;47.606;12.186;2023-03-12T22:34:13;24.50;;;16.43;;
4583;SDS011;2304;47.606;12.186;2023-03-12T22:39:15;24.73;;;17.53;;
4583;SDS011;2304;47.606;12.186;2023-03-12T22:44:17;24.70;;;16.37;;
4583;SDS011;2304;47.606;12.186;2023-03-12T22:49:20;23.70;;;15.53;;
4583;SDS011;2304;47.606;12.186;2023-03-12T22:54:22;24.73;;;16.67;;
4583;SDS011;2304;47.606;12.186;2023-03-12T22:59:23;25.03;;;16.17;;
4583;SDS011;2304;47.606;12.186;2023-03-12T23:04:26;24.70;;;15.40;;
4583;SDS011;2304;47.606;12.186;2023-03-12T23:09:28;24.07;;;15.73;;
4583;SDS011;2304;47.606;12.186;2023-03-12T23:14:31;12.90;;;8.37;;
4583;SDS011;2304;47.606;12.186;2023-03-12T23:19:35;17.13;;;8.20;;
4583;SDS011;2304;47.606;12.186;2023-03-12T23:24:37;13.50;;;8.83;;
4583;SDS011;2304;47.606;12.186;2023-03-12T23:29:39;16.70;;;10.90;;
4583;SDS011;2304;47.606;12.186;2023-03-12T23:34:42;21.90;;;12.60;;
4583;SDS011;2304;47.606;12.186;2023-03-12T23:39:44;20.10;;;14.97;;
4583;SDS011;2304;47.606;12.186;2023-03-12T23:44:46;21.53;;;13.57;;
4583;SDS011;2304;47.606;12.186;2023-03-12T23:49:49;20.63;;;14.00;;
4583;SDS011;2304;47.606;12.186;2023-03-12T23:54:50;19.90;;;13.83;;
4583;SDS011;2304;47.606;12.186;2023-03-12T23:59:52;20.80;;;14.20;;
